sensor_id;sensor_type;location;lat;lon;timestamp;temperature;humidity
41304;DHT22;51002;51.462;7.218;2022-07-10T11:57:17;18.30;73.70
41304;DHT22;51002;51.462;7.218;2022-07-10T11:59:42;18.30;74.30
41304;DHT22;51002;51.462;7.218;2022-07-10T12:02:08;18.20;73.90
41304;DHT22;51002;51.462;7.218;2022-07-10T12:04:34;18.20;73.80
41304;DHT22;51002;51.462;7.218;2022-07-10T12:06:59;18.20;74.20
41304;DHT22;51002;51.462;7.218;2022-07-10T12:09:25;18.20;74.20
41304;DHT22;51002;51.462;7.218;2022-07-10T12:12:02;18.20;75.60
41304;DHT22;51002;51.462;7.218;2022-07-10T12:14:28;18.10;79.40
41304;DHT22;51002;51.462;7.218;2022-07-10T12:16:57;17.90;80.30
41304;DHT22;51002;51.462;7.218;2022-07-10T12:19:29;18.10;81.50
41304;DHT22;51002;51.462;7.218;2022-07-10T12:22:01;18.20;80.60
41304;DHT22;51002;51.462;7.218;2022-07-10T12:24:27;17.90;80.10
41304;DHT22;51002;51.462;7.218;2022-07-10T12:26:53;17.30;81.20
41304;DHT22;51002;51.462;7.218;2022-07-10T12:29:26;17.40;80.60
41304;DHT22;51002;51.462;7.218;2022-07-10T12:31:57;17.50;80.50
41304;DHT22;51002;51.462;7.218;2022-07-10T12:34:42;17.40;80.40
41304;DHT22;51002;51.462;7.218;2022-07-10T12:37:15;17.70;80.20
41304;DHT22;51002;51.462;7.218;2022-07-10T12:42:12;18.00;79.70
41304;DHT22;51002;51.462;7.218;2022-07-10T12:44:44;18.10;78.60
41304;DHT22;51002;51.462;7.218;2022-07-10T12:47:21;18.20;77.80
41304;DHT22;51002;51.462;7.218;2022-07-10T12:49:56;18.30;77.90
41304;DHT22;51002;51.462;7.218;2022-07-10T12:52:30;18.30;76.80
41304;DHT22;51002;51.462;7.218;2022-07-10T12:55:18;18.20;75.20
41304;DHT22;51002;51.462;7.218;2022-07-10T12:57:53;18.10;76.30
41304;DHT22;51002;51.462;7.218;2022-07-10T13:02:49;18.40;77.00
41304;DHT22;51002;51.462;7.218;2022-07-10T13:10:54;18.50;77.60
41304;DHT22;51002;51.462;7.218;2022-07-10T13:13:24;18.10;76.90
41304;DHT22;51002;51.462;7.218;2022-07-10T13:15:54;18.20;76.60
41304;DHT22;51002;51.462;7.218;2022-07-10T13:18:24;18.40;76.50
41304;DHT22;51002;51.462;7.218;2022-07-10T13:20:56;18.50;76.30
41304;DHT22;51002;51.462;7.218;2022-07-10T13:23:36;18.50;76.70
41304;DHT22;51002;51.462;7.218;2022-07-10T13:26:08;18.30;73.10
41304;DHT22;51002;51.462;7.218;2022-07-10T13:28:34;18.00;75.60
41304;DHT22;51002;51.462;7.218;2022-07-10T13:31:02;18.10;75.10
41304;DHT22;51002;51.462;7.218;2022-07-10T13:33:28;18.30;73.60
41304;DHT22;51002;51.462;7.218;2022-07-10T13:35:54;18.70;74.50
41304;DHT22;51002;51.462;7.218;2022-07-10T13:38:24;18.90;73.00
41304;DHT22;51002;51.462;7.218;2022-07-10T13:40:50;19.00;73.40
41304;DHT22;51002;51.462;7.218;2022-07-10T13:43:16;19.00;74.30
41304;DHT22;51002;51.462;7.218;2022-07-10T13:45:48;19.00;73.30
41304;DHT22;51002;51.462;7.218;2022-07-10T13:48:18;18.50;73.00
41304;DHT22;51002;51.462;7.218;2022-07-10T13:50:45;18.30;74.30
41304;DHT22;51002;51.462;7.218;2022-07-10T13:53:15;18.60;73.60
41304;DHT22;51002;51.462;7.218;2022-07-10T13:55:42;18.70;73.30
41304;DHT22;51002;51.462;7.218;2022-07-10T13:58:09;18.60;73.90
41304;DHT22;51002;51.462;7.218;2022-07-10T14:00:38;18.70;72.50
41304;DHT22;51002;51.462;7.218;2022-07-10T14:03:04;18.80;71.90
41304;DHT22;51002;51.462;7.218;2022-07-10T14:05:32;18.90;71.40
41304;DHT22;51002;51.462;7.218;2022-07-10T14:08:01;18.90;71.00
41304;DHT22;51002;51.462;7.218;2022-07-10T14:10:29;19.10;70.70
41304;DHT22;51002;51.462;7.218;2022-07-10T14:12:59;19.10;70.20
41304;DHT22;51002;51.462;7.218;2022-07-10T14:15:25;18.90;70.30
41304;DHT22;51002;51.462;7.218;2022-07-10T14:17:54;19.00;70.40
41304;DHT22;51002;51.462;7.218;2022-07-10T14:20:20;19.00;70.30
41304;DHT22;51002;51.462;7.218;2022-07-10T14:22:46;19.30;70.20
41304;DHT22;51002;51.462;7.218;2022-07-10T14:25:16;19.40;69.50
41304;DHT22;51002;51.462;7.218;2022-07-10T14:27:42;19.40;70.30
41304;DHT22;51002;51.462;7.218;2022-07-10T14:30:12;19.30;68.60
41304;DHT22;51002;51.462;7.218;2022-07-10T14:32:37;19.20;69.10
41304;DHT22;51002;51.462;7.218;2022-07-10T14:35:03;19.20;69.70
41304;DHT22;51002;51.462;7.218;2022-07-10T14:37:29;19.30;69.80
41304;DHT22;51002;51.462;7.218;2022-07-10T14:39:57;19.20;70.30
41304;DHT22;51002;51.462;7.218;2022-07-10T14:42:22;19.20;70.10
41304;DHT22;51002;51.462;7.218;2022-07-10T14:44:52;19.20;69.90
41304;DHT22;51002;51.462;7.218;2022-07-10T14:47:19;19.30;69.10
41304;DHT22;51002;51.462;7.218;2022-07-10T14:49:45;19.00;69.10
41304;DHT22;51002;51.462;7.218;2022-07-10T14:52:13;19.10;69.40
41304;DHT22;51002;51.462;7.218;2022-07-10T14:54:40;19.00;71.40
41304;DHT22;51002;51.462;7.218;2022-07-10T14:57:10;19.00;72.70
41304;DHT22;51002;51.462;7.218;2022-07-10T14:59:41;19.00;73.80
41304;DHT22;51002;51.462;7.218;2022-07-10T15:02:09;18.90;75.00
41304;DHT22;51002;51.462;7.218;2022-07-10T15:04:37;19.00;76.00
41304;DHT22;51002;51.462;7.218;2022-07-10T15:07:03;19.00;76.30
41304;DHT22;51002;51.462;7.218;2022-07-10T15:09:32;18.90;75.60
41304;DHT22;51002;51.462;7.218;2022-07-10T15:11:58;19.00;75.90
41304;DHT22;51002;51.462;7.218;2022-07-10T15:14:23;19.20;75.70
41304;DHT22;51002;51.462;7.218;2022-07-10T15:16:55;19.30;75.30
41304;DHT22;51002;51.462;7.218;2022-07-10T15:19:26;19.30;74.70
41304;DHT22;51002;51.462;7.218;2022-07-10T15:21:51;19.20;74.70
41304;DHT22;51002;51.462;7.218;2022-07-10T15:24:20;19.20;74.40
41304;DHT22;51002;51.462;7.218;2022-07-10T15:26:46;19.30;75.40
41304;DHT22;51002;51.462;7.218;2022-07-10T15:29:12;19.20;75.00
41304;DHT22;51002;51.462;7.218;2022-07-10T15:31:40;18.90;75.70
41304;DHT22;51002;51.462;7.218;2022-07-10T15:34:10;18.60;76.00
41304;DHT22;51002;51.462;7.218;2022-07-10T15:36:40;18.80;76.20
41304;DHT22;51002;51.462;7.218;2022-07-10T15:39:13;18.90;75.70
41304;DHT22;51002;51.462;7.218;2022-07-10T15:41:43;18.90;75.60
41304;DHT22;51002;51.462;7.218;2022-07-10T15:44:12;19.00;75.60
41304;DHT22;51002;51.462;7.218;2022-07-10T15:46:42;19.00;75.60
41304;DHT22;51002;51.462;7.218;2022-07-10T15:49:09;19.10;76.20
41304;DHT22;51002;51.462;7.218;2022-07-10T15:51:37;19.20;76.20
41304;DHT22;51002;51.462;7.218;2022-07-10T15:54:03;19.10;76.00
41304;DHT22;51002;51.462;7.218;2022-07-10T15:56:55;19.10;75.70
41304;DHT22;51002;51.462;7.218;2022-07-10T15:59:21;19.20;76.10
41304;DHT22;51002;51.462;7.218;2022-07-10T16:01:53;19.10;75.80
41304;DHT22;51002;51.462;7.218;2022-07-10T16:04:19;19.10;75.80
41304;DHT22;51002;51.462;7.218;2022-07-10T16:06:47;19.20;76.60
41304;DHT22;51002;51.462;7.218;2022-07-10T16:09:20;19.20;75.90
41304;DHT22;51002;51.462;7.218;2022-07-10T16:11:48;19.20;76.20
41304;DHT22;51002;51.462;7.218;2022-07-10T16:14:15;19.20;75.00
41304;DHT22;51002;51.462;7.218;2022-07-10T16:16:47;19.20;75.70
41304;DHT22;51002;51.462;7.218;2022-07-10T16:19:15;19.30;75.40
41304;DHT22;51002;51.462;7.218;2022-07-10T16:21:41;19.20;73.30
41304;DHT22;51002;51.462;7.218;2022-07-10T16:24:07;19.10;72.80
41304;DHT22;51002;51.462;7.218;2022-07-10T16:26:35;18.90;73.20
41304;DHT22;51002;51.462;7.218;2022-07-10T16:29:01;19.20;73.30
41304;DHT22;51002;51.462;7.218;2022-07-10T16:31:27;19.20;72.20
41304;DHT22;51002;51.462;7.218;2022-07-10T16:33:59;19.10;71.90
41304;DHT22;51002;51.462;7.218;2022-07-10T16:36:27;19.10;71.50
41304;DHT22;51002;51.462;7.218;2022-07-10T16:38:52;19.20;71.80
41304;DHT22;51002;51.462;7.218;2022-07-10T16:41:18;19.20;71.00
41304;DHT22;51002;51.462;7.218;2022-07-10T16:43:44;19.20;69.90
41304;DHT22;51002;51.462;7.218;2022-07-10T16:46:10;19.20;70.10
41304;DHT22;51002;51.462;7.218;2022-07-10T16:48:38;19.30;69.80
41304;DHT22;51002;51.462;7.218;2022-07-10T16:51:03;19.30;70.00
41304;DHT22;51002;51.462;7.218;2022-07-10T16:53:30;19.40;69.80
41304;DHT22;51002;51.462;7.218;2022-07-10T16:56:01;19.40;69.30
41304;DHT22;51002;51.462;7.218;2022-07-10T16:58:26;19.60;69.10
41304;DHT22;51002;51.462;7.218;2022-07-10T17:00:55;19.60;69.80
41304;DHT22;51002;51.462;7.218;2022-07-10T17:03:21;19.60;68.90
41304;DHT22;51002;51.462;7.218;2022-07-10T17:06:06;19.40;68.60
41304;DHT22;51002;51.462;7.218;2022-07-10T17:08:32;19.50;68.60
41304;DHT22;51002;51.462;7.218;2022-07-10T17:10:58;19.50;68.50
41304;DHT22;51002;51.462;7.218;2022-07-10T17:13:24;19.70;69.00
41304;DHT22;51002;51.462;7.218;2022-07-10T17:15:51;19.40;68.80
41304;DHT22;51002;51.462;7.218;2022-07-10T17:18:16;19.60;69.00
41304;DHT22;51002;51.462;7.218;2022-07-10T17:20:42;19.60;68.40
41304;DHT22;51002;51.462;7.218;2022-07-10T17:23:08;19.70;68.10
41304;DHT22;51002;51.462;7.218;2022-07-10T17:25:34;19.70;68.40
41304;DHT22;51002;51.462;7.218;2022-07-10T17:28:01;19.70;68.40
41304;DHT22;51002;51.462;7.218;2022-07-10T17:30:27;19.70;68.20
41304;DHT22;51002;51.462;7.218;2022-07-10T17:32:53;19.40;68.50
41304;DHT22;51002;51.462;7.218;2022-07-10T17:35:19;19.50;68.40
41304;DHT22;51002;51.462;7.218;2022-07-10T17:37:45;19.60;68.20
41304;DHT22;51002;51.462;7.218;2022-07-10T17:40:11;19.70;68.60
41304;DHT22;51002;51.462;7.218;2022-07-10T17:42:38;19.70;68.90
41304;DHT22;51002;51.462;7.218;2022-07-10T17:45:06;19.80;69.30
41304;DHT22;51002;51.462;7.218;2022-07-10T17:47:33;19.70;68.90
41304;DHT22;51002;51.462;7.218;2022-07-10T17:50:09;19.80;68.90
41304;DHT22;51002;51.462;7.218;2022-07-10T17:52:37;19.80;68.90
41304;DHT22;51002;51.462;7.218;2022-07-10T17:55:06;19.70;68.70
41304;DHT22;51002;51.462;7.218;2022-07-10T17:57:32;19.70;68.30
41304;DHT22;51002;51.462;7.218;2022-07-10T17:59:57;19.70;68.50
41304;DHT22;51002;51.462;7.218;2022-07-10T18:02:23;19.70;68.50
41304;DHT22;51002;51.462;7.218;2022-07-10T18:04:49;19.70;68.70
41304;DHT22;51002;51.462;7.218;2022-07-10T18:07:15;19.60;68.10
41304;DHT22;51002;51.462;7.218;2022-07-10T18:09:40;19.70;68.00
41304;DHT22;51002;51.462;7.218;2022-07-10T18:12:06;19.50;67.80
41304;DHT22;51002;51.462;7.218;2022-07-10T18:14:33;19.30;67.90
41304;DHT22;51002;51.462;7.218;2022-07-10T21:46:34;19.00;73.30
41304;DHT22;51002;51.462;7.218;2022-07-10T21:49:00;19.10;73.40
41304;DHT22;51002;51.462;7.218;2022-07-10T21:51:25;19.10;73.60
41304;DHT22;51002;51.462;7.218;2022-07-10T21:53:51;19.10;73.70
41304;DHT22;51002;51.462;7.218;2022-07-10T21:56:17;19.10;73.50
41304;DHT22;51002;51.462;7.218;2022-07-10T21:58:42;19.10;73.60
41304;DHT22;51002;51.462;7.218;2022-07-10T22:01:08;19.00;74.00
41304;DHT22;51002;51.462;7.218;2022-07-10T22:03:34;19.10;73.50
41304;DHT22;51002;51.462;7.218;2022-07-10T22:05:59;19.00;73.70
41304;DHT22;51002;51.462;7.218;2022-07-10T22:08:26;19.00;73.50
41304;DHT22;51002;51.462;7.218;2022-07-10T22:10:52;19.10;73.60
41304;DHT22;51002;51.462;7.218;2022-07-10T22:13:44;19.00;73.40
41304;DHT22;51002;51.462;7.218;2022-07-10T22:16:10;19.00;73.70
41304;DHT22;51002;51.462;7.218;2022-07-10T22:18:37;19.00;73.20
41304;DHT22;51002;51.462;7.218;2022-07-10T22:21:03;19.00;73.30
41304;DHT22;51002;51.462;7.218;2022-07-10T22:23:29;19.00;73.30
41304;DHT22;51002;51.462;7.218;2022-07-10T22:25:54;19.00;73.00
41304;DHT22;51002;51.462;7.218;2022-07-10T22:28:20;19.00;72.90
41304;DHT22;51002;51.462;7.218;2022-07-10T22:30:55;19.00;73.20
41304;DHT22;51002;51.462;7.218;2022-07-10T22:33:39;19.00;72.40
41304;DHT22;51002;51.462;7.218;2022-07-10T22:36:05;19.00;72.60
41304;DHT22;51002;51.462;7.218;2022-07-10T22:38:31;19.00;72.70
41304;DHT22;51002;51.462;7.218;2022-07-10T22:40:56;19.00;72.50
41304;DHT22;51002;51.462;7.218;2022-07-10T22:43:22;19.00;72.40
41304;DHT22;51002;51.462;7.218;2022-07-10T22:45:50;19.10;72.30
41304;DHT22;51002;51.462;7.218;2022-07-10T22:48:18;19.10;71.90
41304;DHT22;51002;51.462;7.218;2022-07-10T22:50:44;19.20;71.00
41304;DHT22;51002;51.462;7.218;2022-07-10T22:53:09;19.20;70.50
41304;DHT22;51002;51.462;7.218;2022-07-10T22:55:35;19.20;70.30
41304;DHT22;51002;51.462;7.218;2022-07-10T22:58:04;19.20;70.20
41304;DHT22;51002;51.462;7.218;2022-07-10T23:00:30;19.20;69.90
41304;DHT22;51002;51.462;7.218;2022-07-10T23:02:55;19.20;70.10
41304;DHT22;51002;51.462;7.218;2022-07-10T23:05:22;19.30;69.90
41304;DHT22;51002;51.462;7.218;2022-07-10T23:07:48;19.20;69.80
41304;DHT22;51002;51.462;7.218;2022-07-10T23:10:14;19.10;70.50
41304;DHT22;51002;51.462;7.218;2022-07-10T23:12:40;19.20;70.40
41304;DHT22;51002;51.462;7.218;2022-07-10T23:15:06;19.20;70.60
41304;DHT22;51002;51.462;7.218;2022-07-10T23:17:32;19.10;70.80
41304;DHT22;51002;51.462;7.218;2022-07-10T23:19:58;19.00;71.20
41304;DHT22;51002;51.462;7.218;2022-07-10T23:22:29;19.10;71.30
41304;DHT22;51002;51.462;7.218;2022-07-10T23:24:54;19.10;71.30
41304;DHT22;51002;51.462;7.218;2022-07-10T23:27:22;19.10;71.20
41304;DHT22;51002;51.462;7.218;2022-07-10T23:29:48;19.20;71.10
41304;DHT22;51002;51.462;7.218;2022-07-10T23:32:13;19.20;71.10
41304;DHT22;51002;51.462;7.218;2022-07-10T23:34:39;19.10;71.30
41304;DHT22;51002;51.462;7.218;2022-07-10T23:37:06;19.00;71.70
41304;DHT22;51002;51.462;7.218;2022-07-10T23:39:32;18.90;72.10
41304;DHT22;51002;51.462;7.218;2022-07-10T23:41:58;18.90;72.10
41304;DHT22;51002;51.462;7.218;2022-07-10T23:44:23;19.00;72.00
41304;DHT22;51002;51.462;7.218;2022-07-10T23:46:49;19.10;71.70
41304;DHT22;51002;51.462;7.218;2022-07-10T23:49:15;19.20;71.60
41304;DHT22;51002;51.462;7.218;2022-07-10T23:52:04;19.20;71.60
41304;DHT22;51002;51.462;7.218;2022-07-10T23:54:29;19.20;71.90
41304;DHT22;51002;51.462;7.218;2022-07-10T23:56:55;19.10;71.90
41304;DHT22;51002;51.462;7.218;2022-07-10T23:59:21;19.20;71.70
